Terminal Aerodrome Forecast
Issued by NWS

Home | Current Version | Previous Version | Text Only | Print | Product List | Glossary On
Versions: 1 2 3 4 5 6 7 8 9 10 11 12 13 14 15 16 17 18
526
FTUS42 KTAE 301720
TAFDHN
TAF
KDHN 301720Z 3018/0118 18010KT P6SM SCT040 BKN250
     FM010200 20004KT P6SM SCT200
     FM010900 17004KT 4SM BR BKN008
     FM011400 19008KT P6SM SCT030=

USA.gov is the U.S. government's official web portal to all federal, state and local government web resources and services.